createdAt,value
2024-03-10T00:01:12.411Z,101647.88
2024-03-10T00:04:34.170Z,101654.69
2024-03-10T00:07:56.495Z,101652.72
2024-03-10T00:11:19.008Z,101648.28
2024-03-10T00:14:42.401Z,101657.63
2024-03-10T00:18:03.888Z,101654.91
2024-03-10T00:21:25.479Z,101649.59
2024-03-10T00:24:47.155Z,101653.03
2024-03-10T00:28:10.239Z,101653.75
2024-03-10T00:31:33.126Z,101644.88
2024-03-10T00:34:54.791Z,101656.94
2024-03-10T00:38:17.006Z,101658.63
2024-03-10T00:41:38.748Z,101661.00
2024-03-10T00:45:00.420Z,101666.09
2024-03-10T00:48:23.609Z,101661.63
2024-03-10T00:51:46.580Z,101678.56
2024-03-10T00:55:11.148Z,101674.09
2024-03-10T00:58:34.253Z,101674.84
2024-03-10T01:01:56.260Z,101676.47
2024-03-10T01:05:20.634Z,101683.25
2024-03-10T01:08:42.490Z,101688.25
2024-03-10T01:12:04.284Z,101689.84
2024-03-10T01:15:26.297Z,101687.97
2024-03-10T01:18:48.638Z,101679.47
2024-03-10T01:22:12.496Z,101687.97
2024-03-10T01:25:34.158Z,101685.31
2024-03-10T01:28:56.051Z,101677.50
2024-03-10T01:32:17.903Z,101684.28
2024-03-10T01:35:41.306Z,101688.41
2024-03-10T01:39:04.710Z,101693.41
2024-03-10T01:42:27.068Z,101690.69
2024-03-10T01:45:50.778Z,101689.69
2024-03-10T01:49:12.446Z,101693.84
2024-03-10T01:52:35.940Z,101694.59
2024-03-10T01:56:00.531Z,101691.94
2024-03-10T01:59:23.687Z,101696.06
2024-03-10T02:02:45.410Z,101697.75
2024-03-10T02:06:10.633Z,101700.13
2024-03-10T02:09:34.580Z,101697.53
2024-03-10T02:12:57.795Z,101696.44
2024-03-10T02:16:19.384Z,101697.19
2024-03-10T02:19:41.294Z,101697.88
2024-03-10T02:23:03.086Z,101700.38
2024-03-10T02:26:33.595Z,101686.47
2024-03-10T02:30:20.255Z,101697.66
2024-03-10T02:33:59.257Z,101699.19
2024-03-10T02:37:38.464Z,101691.31
2024-03-10T02:41:17.202Z,101701.63
2024-03-10T02:44:57.895Z,101696.22
2024-03-10T02:48:20.614Z,101684.81
2024-03-10T02:51:43.765Z,101702.75
2024-03-10T02:55:05.857Z,101701.78
2024-03-10T02:58:27.682Z,101694.69
2024-03-10T03:01:50.750Z,101697.09
2024-03-10T03:05:12.812Z,101701.97
2024-03-10T03:08:34.730Z,101699.09
2024-03-10T03:11:57.420Z,101702.13
2024-03-10T03:15:19.895Z,101712.38
2024-03-10T03:18:45.124Z,101710.66
2024-03-10T03:22:08.242Z,101703.66
2024-03-10T03:25:30.373Z,101704.56
2024-03-10T03:28:51.895Z,101701.09
2024-03-10T03:32:13.762Z,101699.22
2024-03-10T03:35:40.171Z,101687.88
2024-03-10T03:39:01.827Z,101704.03
2024-03-10T03:42:23.424Z,101709.00
2024-03-10T03:45:45.149Z,101712.16
2024-03-10T03:49:06.910Z,101708.63
2024-03-10T03:52:30.254Z,101702.34
2024-03-10T03:55:52.224Z,101712.50
2024-03-10T03:59:14.185Z,101709.66
2024-03-10T04:02:35.849Z,101713.81
2024-03-10T04:05:57.553Z,101711.97
2024-03-10T04:09:20.492Z,101719.47
2024-03-10T04:12:42.079Z,101706.28
2024-03-10T04:16:04.105Z,101718.25
2024-03-10T04:19:25.725Z,101715.47
2024-03-10T04:22:49.929Z,101727.47
2024-03-10T04:26:13.328Z,101724.69
2024-03-10T04:29:35.561Z,101726.31
2024-03-10T04:32:57.729Z,101731.22
2024-03-10T04:36:20.783Z,101726.84
2024-03-10T04:39:42.820Z,101732.59
2024-03-10T04:43:06.797Z,101732.50
2024-03-10T04:46:29.173Z,101739.28
2024-03-10T04:49:50.922Z,101738.19
2024-03-10T04:53:12.884Z,101749.19
2024-03-10T04:56:36.636Z,101747.31
2024-03-10T04:59:59.981Z,101755.06
2024-03-10T05:03:21.770Z,101757.41
2024-03-10T05:06:43.827Z,101756.63
2024-03-10T05:10:05.897Z,101748.91
2024-03-10T05:13:27.779Z,101755.72
2024-03-10T05:16:51.047Z,101756.47
2024-03-10T05:20:13.746Z,101756.75
2024-03-10T05:23:35.572Z,101763.63
2024-03-10T05:26:57.286Z,101758.53
2024-03-10T05:30:19.726Z,101764.78
2024-03-10T05:33:42.792Z,101762.38
2024-03-10T05:37:06.232Z,101770.41
2024-03-10T05:40:28.074Z,101766.50
2024-03-10T05:43:50.097Z,101771.31
2024-03-10T05:47:12.607Z,101780.41
2024-03-10T05:50:35.690Z,101771.75
2024-03-10T05:53:57.884Z,101772.38
2024-03-10T05:57:19.831Z,101780.88
2024-03-10T06:00:41.787Z,101779.88
2024-03-10T06:04:03.526Z,101782.16
2024-03-10T06:07:26.662Z,101776.06
2024-03-10T06:10:49.143Z,101775.16
2024-03-10T06:14:11.222Z,101790.34
2024-03-10T06:17:34.944Z,101791.88
2024-03-10T06:21:14.004Z,101789.25
2024-03-10T06:24:54.517Z,101782.00
2024-03-10T06:28:16.761Z,101782.75
2024-03-10T06:31:40.029Z,101804.19
2024-03-10T06:35:02.172Z,101813.09
2024-03-10T06:38:23.984Z,101817.00
2024-03-10T06:41:48.294Z,101821.03
2024-03-10T06:45:11.046Z,101819.81
2024-03-10T06:48:33.024Z,101822.66
2024-03-10T06:51:54.759Z,101827.38
2024-03-10T06:55:17.098Z,101824.47
2024-03-10T06:58:40.044Z,101827.78
2024-03-10T07:02:01.963Z,101835.44
2024-03-10T07:05:26.113Z,101827.56
2024-03-10T07:08:47.788Z,101833.28
2024-03-10T07:12:09.991Z,101832.94
2024-03-10T07:15:33.106Z,101841.91
2024-03-10T07:18:55.666Z,101837.84
2024-03-10T07:22:17.444Z,101846.00
2024-03-10T07:25:39.089Z,101838.66
2024-03-10T07:29:00.690Z,101848.38
2024-03-10T07:32:23.710Z,101837.38
2024-03-10T07:35:45.537Z,101840.25
2024-03-10T07:39:08.561Z,101852.59
2024-03-10T07:42:30.721Z,101856.38
2024-03-10T07:45:52.848Z,101847.22
2024-03-10T07:49:15.831Z,101856.75
2024-03-10T07:52:37.489Z,101857.72
2024-03-10T07:56:00.563Z,101858.66
2024-03-10T07:59:23.388Z,101869.03
2024-03-10T08:02:45.722Z,101867.34
2024-03-10T08:06:09.152Z,101864.16
2024-03-10T08:09:30.713Z,101873.00
2024-03-10T08:12:53.604Z,101873.00
2024-03-10T08:16:16.182Z,101866.09
2024-03-10T08:19:39.485Z,101874.69
2024-03-10T08:23:06.122Z,101874.53
2024-03-10T08:26:28.392Z,101878.78
2024-03-10T08:29:50.376Z,101872.81
2024-03-10T08:33:12.120Z,101878.00
2024-03-10T08:36:34.656Z,101874.59
2024-03-10T08:39:57.890Z,101881.56
2024-03-10T08:43:19.868Z,101877.41
2024-03-10T08:46:41.686Z,101866.16
2024-03-10T08:50:04.110Z,101876.66
2024-03-10T08:53:27.443Z,101861.22
2024-03-10T08:56:52.572Z,101874.13
2024-03-10T09:00:15.968Z,101872.44
2024-03-10T09:03:39.093Z,101869.19
2024-03-10T09:07:01.157Z,101867.66
2024-03-10T09:10:25.109Z,101864.22
2024-03-10T09:13:48.168Z,101867.66
2024-03-10T09:17:10.210Z,101866.00
2024-03-10T09:20:32.529Z,101856.72
2024-03-10T09:23:54.579Z,101862.03
2024-03-10T09:27:16.439Z,101863.78
2024-03-10T09:30:40.503Z,101861.19
2024-03-10T09:34:04.986Z,101854.31
2024-03-10T09:37:30.025Z,101854.34
2024-03-10T09:40:52.035Z,101857.72
2024-03-10T09:44:18.984Z,101851.66
2024-03-10T09:47:43.812Z,101854.31
2024-03-10T09:51:07.009Z,101858.72
2024-03-10T09:54:28.412Z,101850.22
2024-03-10T09:57:54.444Z,101852.03
2024-03-10T10:01:19.893Z,101846.09
2024-03-10T10:04:54.921Z,101839.28
2024-03-10T10:08:16.819Z,101832.47
2024-03-10T10:11:38.962Z,101835.03
2024-03-10T10:15:00.882Z,101831.69
2024-03-10T10:18:24.406Z,101831.63
2024-03-10T10:21:48.808Z,101833.34
2024-03-10T10:25:15.784Z,101835.91
2024-03-10T10:28:39.007Z,101831.63
2024-03-10T10:32:02.229Z,101815.28
2024-03-10T10:35:23.923Z,101826.41
2024-03-10T10:38:49.690Z,101822.97
2024-03-10T10:42:21.647Z,101833.38
2024-03-10T10:45:52.718Z,101830.84
2024-03-10T10:49:18.188Z,101831.72
2024-03-10T10:52:45.091Z,101826.56
2024-03-10T10:56:08.971Z,101834.34
2024-03-10T10:59:30.841Z,101819.75
2024-03-10T11:03:10.860Z,101820.66
2024-03-10T11:06:35.670Z,101799.16
2024-03-10T11:09:57.353Z,101825.09
2024-03-10T11:13:20.585Z,101824.25
2024-03-10T11:16:42.500Z,101830.28
2024-03-10T11:20:05.532Z,101821.72
2024-03-10T11:23:37.917Z,101820.03
2024-03-10T11:27:20.081Z,101820.13
2024-03-10T11:30:53.522Z,101818.41
2024-03-10T11:34:17.753Z,101822.72
2024-03-10T11:37:40.136Z,101812.38
2024-03-10T11:41:09.692Z,101810.69
2024-03-10T11:44:32.523Z,101808.97
2024-03-10T11:47:56.731Z,101815.00
2024-03-10T11:51:19.315Z,101812.41
2024-03-10T11:54:41.404Z,101802.09
2024-03-10T11:58:03.163Z,101800.44
2024-03-10T12:01:25.081Z,101800.47
2024-03-10T12:04:49.708Z,101799.59
2024-03-10T12:08:11.779Z,101798.72
2024-03-10T12:11:34.846Z,101798.78
2024-03-10T12:14:56.924Z,101791.06
2024-03-10T12:18:19.724Z,101791.97
2024-03-10T12:21:43.369Z,101797.16
2024-03-10T12:25:10.799Z,101795.47
2024-03-10T12:28:32.894Z,101792.88
2024-03-10T12:31:56.131Z,101790.31
2024-03-10T12:35:18.176Z,101795.50
2024-03-10T12:38:42.337Z,101798.09
2024-03-10T12:42:06.018Z,101793.75
2024-03-10T12:45:29.044Z,101776.50
2024-03-10T12:48:51.040Z,101788.59
2024-03-10T12:52:12.826Z,101792.97
2024-03-10T12:55:36.716Z,101795.59
2024-03-10T12:58:59.404Z,101791.28
2024-03-10T13:02:21.296Z,101793.88
2024-03-10T13:05:44.038Z,101787.00
2024-03-10T13:09:06.025Z,101779.28
2024-03-10T13:12:29.235Z,101785.31
2024-03-10T13:15:52.930Z,101781.03
2024-03-10T13:19:14.862Z,101787.09
2024-03-10T13:22:36.811Z,101789.66
2024-03-10T13:25:58.714Z,101790.53
2024-03-10T13:29:22.174Z,101786.25
2024-03-10T13:32:44.614Z,101782.78
2024-03-10T13:36:14.322Z,101779.38
2024-03-10T13:39:39.909Z,101788.00
2024-03-10T13:43:01.847Z,101781.97
2024-03-10T13:46:25.106Z,101777.69
2024-03-10T13:49:46.648Z,101769.94
2024-03-10T13:53:10.977Z,101777.69
2024-03-10T13:56:33.412Z,101772.50
2024-03-10T13:59:56.186Z,101775.94
2024-03-10T14:03:21.182Z,101775.94
2024-03-10T14:06:42.905Z,101774.25
2024-03-10T14:10:04.884Z,101778.53
2024-03-10T14:13:26.982Z,101781.97
2024-03-10T14:16:50.932Z,101780.25
2024-03-10T14:20:16.584Z,101769.94
2024-03-10T14:23:40.280Z,101772.50
2024-03-10T14:27:02.393Z,101772.50
2024-03-10T14:30:26.558Z,101771.63
2024-03-10T14:33:48.159Z,101763.00
2024-03-10T14:37:11.659Z,101767.31
2024-03-10T14:40:34.436Z,101767.28
2024-03-10T14:43:56.695Z,101766.41
2024-03-10T14:47:18.408Z,101762.97
2024-03-10T14:50:41.963Z,101764.69
2024-03-10T14:54:05.138Z,101756.06
2024-03-10T14:57:28.437Z,101750.00
2024-03-10T15:00:51.753Z,101755.16
2024-03-10T15:04:14.101Z,101752.56
2024-03-10T15:07:37.108Z,101754.25
2024-03-10T15:11:01.084Z,101746.50
2024-03-10T15:14:23.012Z,101745.59
2024-03-10T15:17:45.532Z,101753.31
2024-03-10T15:21:07.302Z,101751.59
2024-03-10T15:24:29.231Z,101746.38
2024-03-10T15:27:52.460Z,101747.22
2024-03-10T15:31:14.038Z,101754.94
2024-03-10T15:34:35.958Z,101755.75
2024-03-10T15:37:58.320Z,101757.44
2024-03-10T15:41:20.585Z,101747.88
2024-03-10T15:44:43.843Z,101760.75
2024-03-10T15:48:06.844Z,101765.03
2024-03-10T15:51:30.540Z,101764.09
2024-03-10T15:54:52.517Z,101761.44
2024-03-10T15:58:14.371Z,101769.13
2024-03-10T16:01:37.607Z,101770.75
2024-03-10T16:05:00.050Z,101768.97
2024-03-10T16:08:23.905Z,101773.19
2024-03-10T16:11:46.559Z,101772.22
2024-03-10T16:15:16.247Z,101768.63
2024-03-10T16:18:41.663Z,101782.28
2024-03-10T16:22:05.439Z,101775.22
2024-03-10T16:25:27.381Z,101781.94
2024-03-10T16:28:49.224Z,101780.97
2024-03-10T16:32:11.125Z,101783.34
2024-03-10T16:35:34.580Z,101781.41
2024-03-10T16:38:58.774Z,101783.94
2024-03-10T16:42:20.794Z,101788.13
2024-03-10T16:45:42.630Z,101790.53
2024-03-10T16:49:04.618Z,101780.81
2024-03-10T16:52:27.797Z,101797.94
2024-03-10T16:55:50.989Z,101797.84
2024-03-10T16:59:13.198Z,101795.94
2024-03-10T17:02:35.095Z,101794.06
2024-03-10T17:05:57.070Z,101799.03
2024-03-10T17:09:20.631Z,101794.59
2024-03-10T17:12:42.742Z,101801.31
2024-03-10T17:16:07.524Z,101796.03
2024-03-10T17:19:30.834Z,101795.00
2024-03-10T17:22:53.081Z,101797.47
2024-03-10T17:26:17.481Z,101794.75
2024-03-10T17:29:41.448Z,101804.06
2024-03-10T17:33:03.253Z,101812.44
2024-03-10T17:36:25.981Z,101801.97
2024-03-10T17:39:48.071Z,101817.25
2024-03-10T17:43:12.208Z,101816.22
2024-03-10T17:46:35.150Z,101821.25
2024-03-10T17:49:56.889Z,101826.22
2024-03-10T17:53:18.654Z,101821.78
2024-03-10T17:56:40.516Z,101819.09
2024-03-10T18:00:05.416Z,101822.41
2024-03-10T18:03:28.389Z,101815.41
2024-03-10T18:06:50.766Z,101817.81
2024-03-10T18:10:13.474Z,101818.53
2024-03-10T18:13:35.469Z,101814.06
2024-03-10T18:16:59.753Z,101822.53
2024-03-10T18:20:24.207Z,101821.53
2024-03-10T18:23:45.918Z,101822.19
2024-03-10T18:27:08.477Z,101827.22
2024-03-10T18:30:30.491Z,101820.22
2024-03-10T18:33:53.889Z,101816.66
2024-03-10T18:37:15.445Z,101823.41
2024-03-10T18:40:37.199Z,101821.69
2024-03-10T18:44:01.111Z,101809.47
2024-03-10T18:47:23.249Z,101815.38
2024-03-10T18:50:51.261Z,101820.41
2024-03-10T18:54:17.053Z,101814.31
2024-03-10T18:57:39.413Z,101812.47
2024-03-10T19:01:01.142Z,101813.25
2024-03-10T19:04:23.748Z,101810.59
2024-03-10T19:07:47.179Z,101801.69
2024-03-10T19:11:10.047Z,101821.47
2024-03-10T19:14:32.486Z,101818.81
2024-03-10T19:17:54.450Z,101819.56
2024-03-10T19:21:18.095Z,101818.72
2024-03-10T19:24:42.154Z,101813.53
2024-03-10T19:28:03.992Z,101817.66
2024-03-10T19:31:25.741Z,101815.00
2024-03-10T19:34:47.744Z,101813.13
2024-03-10T19:38:11.971Z,101807.84
2024-03-10T19:41:37.207Z,101812.81
2024-03-10T19:44:58.981Z,101816.09
2024-03-10T19:48:20.855Z,101817.63
2024-03-10T19:51:42.757Z,101821.81
2024-03-10T19:55:05.215Z,101817.47
2024-03-10T19:58:28.531Z,101811.34
2024-03-10T20:01:51.380Z,101815.50
2024-03-10T20:05:15.088Z,101824.78
2024-03-10T20:08:37.593Z,101816.91
2024-03-10T20:12:00.025Z,101820.25
2024-03-10T20:15:23.206Z,101819.22
2024-03-10T20:18:45.087Z,101817.41
2024-03-10T20:22:07.485Z,101815.59
2024-03-10T20:25:32.097Z,101813.75
2024-03-10T20:28:54.116Z,101814.53
2024-03-10T20:32:17.793Z,101816.19
2024-03-10T20:35:39.559Z,101827.19
2024-03-10T20:39:01.445Z,101827.09
2024-03-10T20:42:23.806Z,101833.78
2024-03-10T20:45:52.735Z,101833.72
2024-03-10T20:49:22.106Z,101838.81
2024-03-10T20:52:43.921Z,101831.06
2024-03-10T20:56:06.271Z,101832.69
2024-03-10T20:59:28.269Z,101846.22
2024-03-10T21:02:50.678Z,101847.81
2024-03-10T21:06:14.387Z,101849.41
2024-03-10T21:09:35.888Z,101853.59
2024-03-10T21:12:58.067Z,101855.22
2024-03-10T21:16:20.423Z,101856.00
2024-03-10T21:19:42.741Z,101858.41
2024-03-10T21:23:07.020Z,101858.28
2024-03-10T21:26:29.348Z,101859.06
2024-03-10T21:29:51.319Z,101857.25
2024-03-10T21:33:13.255Z,101846.75
2024-03-10T21:36:35.193Z,101865.69
2024-03-10T21:39:58.560Z,101865.69
2024-03-10T21:43:22.049Z,101864.81
2024-03-10T21:46:44.201Z,101862.94
2024-03-10T21:50:07.773Z,101864.53
2024-03-10T21:53:30.030Z,101870.41
2024-03-10T21:56:55.107Z,101865.16
2024-03-10T22:00:18.359Z,101875.25
2024-03-10T22:03:40.670Z,101873.47
2024-03-10T22:07:02.676Z,101864.88
2024-03-10T22:10:24.704Z,101870.59
2024-03-10T22:13:47.769Z,101873.13
2024-03-10T22:17:10.129Z,101876.41
2024-03-10T22:20:32.073Z,101878.03
2024-03-10T22:23:53.870Z,101880.53
2024-03-10T22:27:15.484Z,101883.03
2024-03-10T22:30:38.654Z,101876.97
2024-03-10T22:33:59.995Z,101876.88
2024-03-10T22:37:21.553Z,101875.09
2024-03-10T22:40:43.165Z,101878.44
2024-03-10T22:44:06.242Z,101872.31
2024-03-10T22:47:29.221Z,101879.13
2024-03-10T22:50:52.747Z,101877.44
2024-03-10T22:54:14.837Z,101883.38
2024-03-10T22:57:36.703Z,101887.59
2024-03-10T23:01:00.869Z,101884.13
2024-03-10T23:04:24.501Z,101880.66
2024-03-10T23:07:46.918Z,101878.78
2024-03-10T23:11:09.650Z,101884.66
2024-03-10T23:14:32.863Z,101895.63
2024-03-10T23:17:55.006Z,101888.72
2024-03-10T23:21:18.324Z,101886.84
2024-03-10T23:24:39.953Z,101891.94
2024-03-10T23:28:02.158Z,101891.81
2024-03-10T23:31:24.547Z,101890.13
2024-03-10T23:34:46.432Z,101877.91
2024-03-10T23:38:09.745Z,101891.00
2024-03-10T23:41:31.545Z,101896.06
2024-03-10T23:44:53.734Z,101878.72
2024-03-10T23:48:15.565Z,101897.72
2024-03-10T23:51:37.410Z,101907.88
2024-03-10T23:55:00.203Z,101906.94
2024-03-10T23:58:22.313Z,101900.84
